EW7521 / D-AKNF 7700 Squawk Report (21st of April, 2019)

Aircraft A319 Reg No. D-AKNF Age 22 years old
Model A319 Jet engines 2 First flight 06-01-97
Registered 28-10-17 Rollout 12-96 Delivered 27-01-97
Construction No. 0646 Line No. N/A Series 112
ADSHEX 3C6DC6 Airline name Eurowings Owner Lease Air Gmbh & Co.
Airfield based Dusseldorf~Nordrhein-Westfalen~D First tracked 2017-07-13 05:52:00

Flight history for D-AKNF

Route Flight No Date Playback
Tegel (TXL) - Heathrow (LHR) EW8464 2019-05-23 17:20:00
Koln Bonn (CGN) - Tegel (TXL) EW8053 2019-05-23 15:52:00
Tegel (TXL) - Koln Bonn (CGN) EW8052 2019-05-23 12:49:00
Baden Airpark (FKB) - Tegel (TXL) EW8123 2019-05-22 20:00:00
Tegel (TXL) - Baden Airpark (FKB) EW8122 2019-05-22 18:57:00
Koln Bonn (CGN) - Son Sant Joan (PMI) 4U6900 2019-05-22 16:55:00
Schwechat (VIE) - Koln Bonn (CGN) EW757 2019-05-22 09:51:00
Koln Bonn (CGN) - Schwechat (VIE) EW756 2019-05-22 06:19:00
Stansted (STN) - Koln Bonn (CGN) EW357 2019-05-22 04:58:00
Koln Bonn (CGN) - Stansted (STN) EW356 2019-05-21 19:25:00
Munich Airport (MUC) - Koln Bonn (CGN) EW85 2019-05-21 17:33:00
Koln Bonn (CGN) - Munich Airport (MUC) EW84 2019-05-21 14:09:00
Munich Airport (MUC) - Koln Bonn (CGN) EW83 2019-05-21 13:09:00
Koln Bonn (CGN) - Munich Airport (MUC) EW82 2019-05-21 10:48:00
Munich Airport (MUC) - Koln Bonn (CGN) EW81 2019-05-21 09:12:00
Koln Bonn (CGN) - Munich Airport (MUC) EW80 2019-05-21 07:16:00
Stansted (STN) - Koln Bonn (CGN) EW357 2019-05-21 05:24:00
Koln Bonn (CGN) - Stansted (STN) EW356 2019-05-20 19:35:00
Václav Havel Airport Prague (PRG) - Koln Bonn (CGN) EW773 2019-05-20 17:51:00
Koln Bonn (CGN) - Václav Havel Airport Prague (PRG) EW772 2019-05-20 15:06:00
Time Lat Lon Altitude Heading Speed Vertical Rate
2019-04-21 13:49:03 GMT 43.663055 7.206999 0 281 13 0
2019-04-21 13:48:58 GMT 43.662998 7.207191 0 267 16 0
2019-04-21 13:48:47 GMT 43.663101 7.208229 0 261 17 0
2019-04-21 13:48:28 GMT 43.663181 7.210628 0 261 19 0
2019-04-21 13:48:24 GMT 43.663227 7.211087 0 261 23 0
2019-04-21 13:48:13 GMT 43.663414 7.212623 0 264 20 0
2019-04-21 13:48:05 GMT 43.663731 7.215095 0 306 15 0
2019-04-21 13:47:49 GMT 43.663673 7.215590 0 306 15 0
2019-04-21 13:47:40 GMT 43.663448 7.215794 0 315 14 0
2019-04-21 13:47:33 GMT 43.663158 7.216170 0 315 10 0
2019-04-21 13:47:21 GMT 43.662903 7.216530 0 317 4 0
2019-04-21 13:47:12 GMT 43.662804 7.216660 0 315 3 0
2019-04-21 13:47:02 GMT 43.662735 7.216756 0 315 2 0
2019-04-21 13:46:51 GMT 43.662449 7.216932 0 315 9 0
2019-04-21 13:46:40 GMT 43.662159 7.217658 0 345 17 0
2019-04-21 13:46:30 GMT 43.661263 7.217069 0 45 21 0
2019-04-21 13:46:19 GMT 43.660168 7.215549 0 45 53 0
2019-04-21 13:46:09 GMT 43.657619 7.212148 0 45 92 0
2019-04-21 13:45:58 GMT 43.654037 7.207031 0 45 122 0
2019-04-21 13:45:49 GMT 43.649708 7.201277 50 44 125 -832
2019-04-21 13:45:39 GMT 43.645611 7.195391 175 45 125 -512
2019-04-21 13:45:27 GMT 43.641094 7.188917 300 44 125 -832
2019-04-21 13:45:16 GMT 43.636208 7.182443 425 44 121 -576
2019-04-21 13:45:05 GMT 43.632526 7.177473 525 45 121 -704
2019-04-21 13:44:55 GMT 43.628036 7.171326 650 45 122 -768
2019-04-21 13:44:45 GMT 43.623871 7.165194 775 44 121 -704
2019-04-21 13:44:34 GMT 43.619587 7.159816 875 43 122 -512
2019-04-21 13:44:20 GMT 43.614212 7.152227 1,000 45 125 -896
2019-04-21 13:44:08 GMT 43.609314 7.145265 1,175 45 120 -576
2019-04-21 13:44:01 GMT 43.606567 7.141560 1,225 44 112 -576
2019-04-21 13:43:52 GMT 43.603317 7.137089 1,300 44 111 -576
2019-04-21 13:43:42 GMT 43.599663 7.132285 1,400 44 111 -832
2019-04-21 13:43:32 GMT 43.595718 7.126933 1,550 45 113 -768
2019-04-21 13:43:21 GMT 43.591934 7.121626 1,675 45 117 -448
2019-04-21 13:43:09 GMT 43.587185 7.114955 1,775 44 123 -640
2019-04-21 13:42:59 GMT 43.583176 7.109687 1,875 45 123 -640
2019-04-21 13:42:49 GMT 43.579056 7.103811 2,000 45 124 -640
2019-04-21 13:42:38 GMT 43.574387 7.097743 2,100 43 127 -640
2019-04-21 13:42:29 GMT 43.570148 7.091675 2,200 44 133 -512
2019-04-21 13:42:18 GMT 43.565025 7.084939 2,325 45 135 -960
2019-04-21 13:42:06 GMT 43.560558 7.078727 2,500 45 135 -896
2019-04-21 13:41:56 GMT 43.556076 7.072129 2,650 46 134 -704
2019-04-21 13:41:45 GMT 43.551132 7.065486 2,775 43 135 -704
2019-04-21 13:41:35 GMT 43.546463 7.059674 2,875 42 135 -704
2019-04-21 13:41:25 GMT 43.541840 7.053861 3,025 43 135 -768
2019-04-21 13:41:14 GMT 43.537262 7.047410 3,150 44 129 -768
2019-04-21 13:41:04 GMT 43.532860 7.041125 3,275 46 124 -576
2019-04-21 13:40:52 GMT 43.528244 7.034571 3,500 45 121 -640
2019-04-21 13:40:41 GMT 43.524170 7.028887 3,500 45 121 -768
2019-04-21 13:40:32 GMT 43.519917 7.023272 3,625 44 125 -768
2019-04-21 13:40:21 GMT 43.513538 7.014117 3,800 44 125 -768
2019-04-21 13:40:10 GMT 43.511490 7.011513 3,875 44 125 -768
2019-04-21 13:40:01 GMT 43.506653 7.004961 4,000 43 130 -576
2019-04-21 13:39:51 GMT 43.501995 6.999010 4,075 44 142 -704
2019-04-21 13:39:40 GMT 43.497665 6.993321 4,175 44 152 -704
2019-04-21 13:39:29 GMT 43.492359 6.986062 4,300 45 162 -832
2019-04-21 13:39:17 GMT 43.485901 6.977021 4,450 45 173 -704
2019-04-21 13:39:08 GMT 43.480209 6.969060 4,550 45 185 -960
2019-04-21 13:38:57 GMT 43.473598 6.960035 4,750 45 197 -1472
2019-04-21 13:38:46 GMT 43.466103 6.949245 5,050 45 206 -1792
2019-04-21 13:38:36 GMT 43.459587 6.940286 5,350 45 217 -1664
2019-04-21 13:38:25 GMT 43.451935 6.929499 0 45 231 0
2019-04-21 13:38:15 GMT 43.443695 6.918512 6,050 45 241 -2048
2019-04-21 13:38:04 GMT 43.434822 6.906281 6,525 44 249 -3520
2019-04-21 13:37:54 GMT 43.426765 6.895752 7,125 45 254 -4224
2019-04-21 13:37:43 GMT 43.417412 6.882608 7,800 44 265 -1792
2019-04-21 13:37:34 GMT 43.407761 6.870735 8,125 42 276 -2368
2019-04-21 13:37:22 GMT 43.398788 6.856555 8,550 66 275 -1664
2019-04-21 13:37:13 GMT 43.394073 6.839692 8,850 77 277 -1856
2019-04-21 13:36:59 GMT 43.392693 6.818324 9,175 89 283 -1216
2019-04-21 13:36:49 GMT 43.392517 6.798940 9,400 89 289 -1984
2019-04-21 13:36:40 GMT 43.392334 6.782780 9,700 89 291 -2112
2019-04-21 13:36:30 GMT 43.391621 6.744625 10,150 87 292 -2368
2019-04-21 13:36:19 GMT 43.391621 6.744625 10,475 87 292 -2368
2019-04-21 13:36:10 GMT 43.391006 6.725741 10,875 87 293 -2496
2019-04-21 13:35:58 GMT 43.390038 6.704603 11,525 87 291 -2944
2019-04-21 13:35:55 GMT 43.389992 6.698717 11,525 87 291 -2944
2019-04-21 13:35:48 GMT 43.389404 6.686778 11,825 87 286 -2240
2019-04-21 13:35:37 GMT 43.388687 6.666609 12,325 87 286 -2240
2019-04-21 13:35:27 GMT 43.388168 6.648772 12,625 86 288 -1664
2019-04-21 13:35:17 GMT 43.387058 6.627895 12,950 85 293 -2496
2019-04-21 13:35:06 GMT 43.385799 6.609323 13,350 84 293 -1856
2019-04-21 13:34:55 GMT 43.384415 6.589434 13,700 84 295 -1920
2019-04-21 13:34:45 GMT 43.383057 6.569628 14,025 84 296 -1856
2019-04-21 13:34:35 GMT 43.381611 6.549356 14,325 84 299 -1472
2019-04-21 13:34:24 GMT 43.380157 6.529967 14,575 84 305 -1088
2019-04-21 13:34:13 GMT 43.378601 6.508952 14,750 84 311 -896
2019-04-21 13:34:02 GMT 43.377090 6.488385 14,900 84 316 -640
2019-04-21 13:33:52 GMT 43.375511 6.466958 15,000 84 325 -128
2019-04-21 13:33:41 GMT 43.373932 6.444120 14,975 84 336 256
2019-04-21 13:33:31 GMT 43.371555 6.422163 14,950 77 353 -384
2019-04-21 13:33:20 GMT 43.367321 6.399275 15,175 75 361 -1472
2019-04-21 13:33:08 GMT 43.362198 6.372659 15,375 75 361 -2048
2019-04-21 13:32:58 GMT 43.357727 6.349140 15,800 75 361 -3008
2019-04-21 13:32:47 GMT 43.353447 6.326621 16,325 75 358 -3328
2019-04-21 13:32:37 GMT 43.348885 6.302883 16,900 75 358 -2816
2019-04-21 13:32:26 GMT 43.344555 6.279994 17,350 75 362 -2176
2019-04-21 13:32:15 GMT 43.339874 6.254414 17,675 76 368 -1728
2019-04-21 13:32:07 GMT 43.336365 6.234676 17,975 76 377 -2176
2019-04-21 13:31:56 GMT 43.332047 6.209894 18,500 76 382 -2624
2019-04-21 13:31:44 GMT 43.327332 6.181470 18,875 77 387 -1856
2019-04-21 13:31:33 GMT 43.323326 6.155810 19,175 78 395 -1664
2019-04-21 13:31:23 GMT 43.319466 6.130044 19,450 78 406 -1344
2019-04-21 13:31:12 GMT 43.315475 6.103033 19,675 78 418 -1344
2019-04-21 13:31:01 GMT 43.311356 6.074609 19,900 78 430 -1408
2019-04-21 13:30:52 GMT 43.307362 6.047058 20,150 78 442 -1472
2019-04-21 13:30:49 GMT 43.306755 6.042611 20,175 78 445 -1472
2019-04-21 13:30:40 GMT 43.302704 6.015142 20,425 78 459 -1664
2019-04-21 13:30:29 GMT 43.297585 5.983494 20,750 74 474 -3456
2019-04-21 13:30:21 GMT 43.292557 5.960345 21,375 69 482 -4032
2019-04-21 13:30:18 GMT 43.290462 5.952301 21,375 69 482 -4032
2019-04-21 13:30:10 GMT 43.284027 5.931340 21,900 64 487 -4672
2019-04-21 13:30:07 GMT 43.280869 5.922461 22,150 62 489 -4928
2019-04-21 13:30:00 GMT 43.272724 5.902405 22,750 58 492 -5120
2019-04-21 13:29:56 GMT 43.268097 5.892377 23,075 56 493 -5376
2019-04-21 13:29:50 GMT 43.258945 5.874481 23,700 52 493 -5952
2019-04-21 13:29:45 GMT 43.252708 5.863756 24,125 50 492 -6144
2019-04-21 13:29:39 GMT 43.243725 5.849631 24,725 47 493 -4800
2019-04-21 13:29:34 GMT 43.236786 5.839691 25,075 44 496 -4416
2019-04-21 13:29:28 GMT 43.226486 5.826203 25,525 42 498 -4800
2019-04-21 13:29:23 GMT 43.217651 5.815153 25,950 42 498 -4800
2019-04-21 13:29:18 GMT 43.208771 5.804103 26,350 42 498 -5056
2019-04-21 13:29:12 GMT 43.199936 5.793052 26,800 42 498 -5248
2019-04-21 13:29:08 GMT 43.191444 5.782471 27,225 42 498 -4544
2019-04-21 13:29:00 GMT 43.177807 5.765337 27,800 42 501 -3840
2019-04-21 13:28:56 GMT 43.172359 5.758471 28,000 42 502 -3584
2019-04-21 13:28:49 GMT 43.160023 5.742907 28,425 42 507 -3328
2019-04-21 13:28:46 GMT 43.152145 5.732883 28,675 42 509 -3648
2019-04-21 13:28:41 GMT 43.146244 5.725446 28,875 42 510 -4096
2019-04-21 13:28:37 GMT 43.140053 5.717534 29,125 42 510 -4224
2019-04-21 13:28:34 GMT 43.133816 5.709621 29,375 43 512 -4224
2019-04-21 13:28:29 GMT 43.125183 5.698583 29,925 42 513 -3840
2019-04-21 13:28:25 GMT 43.118271 5.689768 30,025 42 512 -4096
2019-04-21 13:28:18 GMT 43.106815 5.675158 30,775 42 516 -3072
2019-04-21 13:28:15 GMT 43.101227 5.668095 30,675 42 520 -2624
2019-04-21 13:28:08 GMT 43.088612 5.652073 31,000 43 520 -2752
2019-04-21 13:28:03 GMT 43.080837 5.642199 31,525 42 527 -2944
2019-04-21 13:27:58 GMT 43.070923 5.629578 31,475 43 525 -3200
2019-04-21 13:27:54 GMT 43.064163 5.620976 31,875 43 525 -3136
2019-04-21 13:27:51 GMT 43.059219 5.614589 32,200 42 526 -3008
2019-04-21 13:27:47 GMT 43.052078 5.605582 32,050 42 526 -3072
2019-04-21 13:27:41 GMT 43.038197 5.587921 32,450 42 527 -2944
2019-04-21 13:27:38 GMT 43.035690 5.584759 32,525 42 527 -2944
2019-04-21 13:27:34 GMT 43.027084 5.573901 32,775 42 527 -3072
2019-04-21 13:27:29 GMT 43.018478 5.563106 33,000 42 528 -3264
2019-04-21 13:27:26 GMT 43.013489 5.556783 33,300 42 527 -3392
2019-04-21 13:27:22 GMT 43.006256 5.547776 33,400 42 526 -3648
2019-04-21 13:27:18 GMT 42.998337 5.537940 33,650 42 525 -3776
2019-04-21 13:27:13 GMT 42.989361 5.526777 33,975 42 524 -3840
2019-04-21 13:27:06 GMT 42.977165 5.511736 34,400 42 521 -3840
2019-04-21 13:27:03 GMT 42.972881 5.506505 34,575 42 521 -3840
2019-04-21 13:26:56 GMT 42.959702 5.490226 35,150 42 516 -3392
2019-04-21 13:26:53 GMT 42.955490 5.484924 35,200 42 516 -3264
2019-04-21 13:26:46 GMT 42.941437 5.467423 35,650 42 513 -2048
2019-04-21 13:26:42 GMT 42.930954 5.454329 35,850 42 512 -960
2019-04-21 13:26:39 GMT 42.930954 5.454329 35,925 42 512 -256
2019-04-21 13:26:35 GMT 42.923264 5.444748 35,975 42 513 -128
2019-04-21 13:26:32 GMT 42.918365 5.438616 36,000 42 513 0
2019-04-21 13:26:28 GMT 42.908966 5.426854 36,000 42 513 0
2019-04-21 13:26:21 GMT 42.899143 5.414625 36,000 42 513 0
2019-04-21 13:26:17 GMT 42.891464 5.405077 36,000 42 513 0
2019-04-21 13:26:11 GMT 42.880943 5.391998 36,000 42 512 0
2019-04-21 13:26:04 GMT 42.867676 5.375453 36,000 42 513 0
2019-04-21 13:26:00 GMT 42.861343 5.367671 36,000 42 512 64
2019-04-21 13:25:56 GMT 42.854362 5.358974 36,000 42 512 64
2019-04-21 13:25:53 GMT 42.849106 5.352450 36,000 42 513 0
2019-04-21 13:25:49 GMT 42.842442 5.344195 35,975 42 513 0
2019-04-21 13:25:45 GMT 42.835461 5.335497 35,975 42 513 0
2019-04-21 13:25:42 GMT 42.830200 5.329008 35,975 42 512 -64
2019-04-21 13:25:38 GMT 42.822147 5.319018 36,000 42 513 -64
2019-04-21 13:25:35 GMT 42.817909 5.313786 36,000 42 513 -64
2019-04-21 13:25:31 GMT 42.811249 5.305566 36,000 42 513 -64
2019-04-21 13:25:26 GMT 42.801804 5.293813 36,000 42 513 0
2019-04-21 13:25:21 GMT 42.793762 5.283862 36,000 42 512 -64
2019-04-21 13:25:16 GMT 42.785339 5.273500 36,025 42 512 64
2019-04-21 13:25:13 GMT 42.778667 5.265262 36,000 42 512 64
2019-04-21 13:25:10 GMT 42.775127 5.260918 36,000 42 512 64
2019-04-21 13:25:05 GMT 42.756546 5.237982 36,000 42 513 64
2019-04-21 13:25:00 GMT 42.756546 5.237982 36,000 42 513 64
2019-04-21 13:24:53 GMT 42.737934 5.214993 36,000 42 513 0
2019-04-21 13:24:49 GMT 42.737934 5.214993 36,000 42 513 0
2019-04-21 13:24:42 GMT 42.719639 5.192445 36,000 42 513 0
2019-04-21 13:24:39 GMT 42.719639 5.192445 36,000 42 513 0
2019-04-21 13:24:34 GMT 42.706326 5.175966 36,000 42 513 0
2019-04-21 13:24:26 GMT 42.694363 5.161211 36,000 42 513 0
2019-04-21 13:24:21 GMT 42.689117 5.154710 36,000 42 513 0
2019-04-21 13:24:17 GMT 42.681744 5.145626 36,000 42 513 0
2019-04-21 13:24:12 GMT 42.671177 5.132659 36,000 42 512 -64
2019-04-21 13:24:08 GMT 42.664894 5.124930 36,000 42 511 0
2019-04-21 13:24:01 GMT 42.652279 5.109409 36,000 42 511 0
2019-04-21 13:23:56 GMT 42.643852 5.099061 36,000 42 511 0
2019-04-21 13:23:51 GMT 42.627411 5.078867 36,000 42 510 0
2019-04-21 13:23:46 GMT 42.627411 5.078867 36,000 42 511 -64
2019-04-21 13:23:40 GMT 42.616524 5.065592 36,025 42 510 0
2019-04-21 13:23:36 GMT 42.609543 5.057032 36,000 42 510 0
2019-04-21 13:23:32 GMT 42.602188 5.048031 36,000 42 510 0
2019-04-21 13:23:29 GMT 42.595871 5.040290 36,000 42 510 0
2019-04-21 13:23:25 GMT 42.591339 5.034740 36,000 42 511 0
2019-04-21 13:23:20 GMT 42.582214 5.023562 36,000 42 511 0
2019-04-21 13:23:17 GMT 42.574127 5.013698 36,000 42 511 0
2019-04-21 13:23:14 GMT 42.570995 5.009829 36,000 42 511 64
2019-04-21 13:23:11 GMT 42.564667 5.002101 36,000 42 512 64
2019-04-21 13:23:07 GMT 42.559433 4.995596 36,000 42 513 64
2019-04-21 13:23:04 GMT 42.553802 4.988729 36,000 42 512 64
2019-04-21 13:22:59 GMT 42.544693 4.977493 36,000 42 513 128
2019-04-21 13:22:53 GMT 42.533802 4.964096 35,975 42 513 320
2019-04-21 13:22:50 GMT 42.528870 4.958092 35,975 42 513 448
2019-04-21 13:22:46 GMT 42.521839 4.949469 35,925 42 515 576
2019-04-21 13:22:41 GMT 42.514065 4.939951 35,900 42 515 576
2019-04-21 13:22:38 GMT 42.507339 4.931738 35,875 42 515 640
2019-04-21 13:22:34 GMT 42.500656 4.923536 35,850 42 515 768
2019-04-21 13:22:31 GMT 42.492882 4.914018 35,775 42 516 704
2019-04-21 13:22:27 GMT 42.488251 4.908329 35,750 42 516 704
2019-04-21 13:22:24 GMT 42.482620 4.901400 35,725 42 517 704
2019-04-21 13:22:19 GMT 42.474449 4.891407 35,700 42 518 704
2019-04-21 13:22:14 GMT 42.463043 4.877546 35,600 42 518 896
2019-04-21 13:22:09 GMT 42.455967 4.868860 35,575 42 518 896
2019-04-21 13:22:06 GMT 42.450623 4.862324 35,500 42 518 896
2019-04-21 13:21:59 GMT 42.438492 4.847592 35,400 42 518 896
2019-04-21 13:21:55 GMT 42.431396 4.838916 35,350 42 518 896
2019-04-21 13:21:50 GMT 42.416771 4.821082 35,225 42 518 1024
2019-04-21 13:21:47 GMT 42.416771 4.821082 35,225 42 518 1024
2019-04-21 13:21:43 GMT 42.410019 4.812886 35,050 42 519 1280
2019-04-21 13:21:36 GMT 42.397545 4.797704 35,025 42 519 1152
2019-04-21 13:21:32 GMT 42.389725 4.788187 34,950 42 519 1280
2019-04-21 13:21:28 GMT 42.383301 4.780330 34,875 41 520 1344
2019-04-21 13:21:24 GMT 42.376129 4.771643 34,775 41 520 1280
2019-04-21 13:21:21 GMT 42.365753 4.759078 34,650 41 520 1216
2019-04-21 13:21:18 GMT 42.365753 4.759078 34,650 41 521 1216
2019-04-21 13:21:15 GMT 42.360031 4.752149 34,600 41 521 1152
2019-04-21 13:21:11 GMT 42.352844 4.743410 34,500 41 521 960
2019-04-21 13:21:08 GMT 42.347809 4.737355 34,450 41 521 960
2019-04-21 13:21:05 GMT 42.341030 4.729103 34,400 41 521 960
2019-04-21 13:21:01 GMT 42.334900 4.721687 34,325 41 521 1024
2019-04-21 13:20:58 GMT 42.329178 4.714758 34,275 41 521 1088
2019-04-21 13:20:54 GMT 42.321991 4.706081 34,250 41 521 1088
2019-04-21 13:20:48 GMT 42.311279 4.693035 34,100 41 521 1152
2019-04-21 13:20:44 GMT 42.300854 4.680431 33,975 41 521 1088
2019-04-21 13:20:40 GMT 42.295826 4.674299 33,975 41 521 1024
2019-04-21 13:20:35 GMT 42.287960 4.664782 33,900 41 521 1088
2019-04-21 13:20:32 GMT 42.281891 4.657392 33,825 41 521 1216
2019-04-21 13:20:29 GMT 42.277206 4.651688 33,775 41 521 1344
2019-04-21 13:20:26 GMT 42.272179 4.645620 33,650 41 522 1344
2019-04-21 13:20:19 GMT 42.258865 4.629551 33,425 41 524 1408
2019-04-21 13:20:14 GMT 42.251324 4.620454 33,450 41 524 1408
2019-04-21 13:20:07 GMT 42.239079 4.605635 33,275 41 524 1216
2019-04-21 13:20:04 GMT 42.233643 4.599089 33,250 41 524 1152
2019-04-21 13:19:58 GMT 42.222462 4.585578 33,025 41 524 960
2019-04-21 13:19:54 GMT 42.214546 4.575933 33,050 41 524 960
2019-04-21 13:19:49 GMT 42.204803 4.564195 32,975 41 523 640
2019-04-21 13:19:43 GMT 42.195042 4.552492 32,925 41 522 640
2019-04-21 13:19:36 GMT 42.181450 4.536012 32,850 42 521 640
2019-04-21 13:19:33 GMT 42.177166 4.530774 32,850 42 519 768
2019-04-21 13:19:29 GMT 42.170090 4.522024 32,775 43 519 1152
2019-04-21 13:19:26 GMT 42.165249 4.515764 32,725 43 519 1152
2019-04-21 13:19:22 GMT 42.158020 4.506330 32,650 44 519 1280
2019-04-21 13:19:19 GMT 42.151932 4.498090 32,575 45 518 1216
2019-04-21 13:19:14 GMT 42.144253 4.487404 32,525 46 518 1216
2019-04-21 13:19:11 GMT 42.139343 4.480362 32,425 47 517 1088
2019-04-21 13:19:08 GMT 42.132935 4.470811 32,350 48 517 960
2019-04-21 13:19:04 GMT 42.126617 4.461198 32,275 49 516 960
2019-04-21 13:19:01 GMT 42.124420 4.457767 32,250 49 516 960
2019-04-21 13:18:55 GMT 42.114597 4.442054 32,175 50 514 896
2019-04-21 13:18:52 GMT 42.109543 4.433608 32,125 51 513 896
2019-04-21 13:18:46 GMT 42.099934 4.417015 32,025 53 512 768
2019-04-21 13:18:43 GMT 42.095673 4.409325 32,000 53 511 768
2019-04-21 13:18:40 GMT 42.093475 4.405268 31,950 53 511 768
2019-04-21 13:18:34 GMT 42.083920 4.387122 31,875 56 507 640
2019-04-21 13:18:30 GMT 42.075302 4.369874 31,800 56 507 640
2019-04-21 13:18:23 GMT 42.069538 4.357676 31,775 57 505 640
2019-04-21 13:18:20 GMT 42.066605 4.351289 31,725 58 504 640
2019-04-21 13:18:17 GMT 42.063671 4.344901 31,700 59 503 576
2019-04-21 13:18:14 GMT 42.059437 4.335256 31,675 60 500 576
2019-04-21 13:18:10 GMT 42.054611 4.323932 31,625 60 500 576
2019-04-21 13:18:01 GMT 42.044769 4.299487 31,525 63 494 576
2019-04-21 13:17:49 GMT 42.032913 4.267127 31,450 65 489 576
2019-04-21 13:17:37 GMT 42.018608 4.223477 31,300 66 483 640
2019-04-21 13:17:30 GMT 42.015770 4.214662 31,250 66 481 1216
2019-04-21 13:17:27 GMT 42.013092 4.206453 31,225 66 481 1216
2019-04-21 13:17:21 GMT 42.006924 4.187260 31,075 66 481 1216
2019-04-21 13:17:15 GMT 42.002316 4.173016 30,975 66 480 1216
2019-04-21 13:17:12 GMT 41.997528 4.158263 30,825 66 480 1472
2019-04-21 13:17:05 GMT 41.993958 4.147339 30,775 66 480 1600
2019-04-21 13:17:01 GMT 41.989700 4.134230 30,650 66 481 1600
2019-04-21 13:16:55 GMT 41.984711 4.118937 30,500 66 481 1216
2019-04-21 13:16:49 GMT 41.978302 4.099211 30,375 66 480 640
2019-04-21 13:16:44 GMT 41.975464 4.090472 30,250 66 481 640
2019-04-21 13:16:40 GMT 41.971359 4.077908 30,250 66 481 640
2019-04-21 13:16:37 GMT 41.968689 4.069748 30,200 66 481 576
2019-04-21 13:16:34 GMT 41.966003 4.061556 30,200 66 481 576
2019-04-21 13:16:29 GMT 41.961914 4.048961 30,150 66 482 576
2019-04-21 13:16:26 GMT 41.958511 4.038561 30,100 66 483 576
2019-04-21 13:16:23 GMT 41.956367 4.031982 30,100 66 483 576
2019-04-21 13:16:17 GMT 41.950836 4.014941 30,050 66 483 576
2019-04-21 13:16:13 GMT 41.947266 4.004017 29,975 66 482 576
2019-04-21 13:16:09 GMT 41.943474 3.992508 29,925 66 482 576
2019-04-21 13:16:02 GMT 41.937420 3.973857 29,900 66 482 640
2019-04-21 13:15:59 GMT 41.934162 3.964020 29,850 66 481 640
2019-04-21 13:15:55 GMT 41.929878 3.950926 29,800 66 481 640
2019-04-21 13:15:51 GMT 41.926849 3.941657 29,775 66 480 640
2019-04-21 13:15:48 GMT 41.925064 3.936164 29,750 66 480 640
2019-04-21 13:15:45 GMT 41.922226 3.927487 29,725 66 479 640
2019-04-21 13:15:41 GMT 41.918476 3.916051 29,650 66 478 640
2019-04-21 13:15:38 GMT 41.916183 3.909010 29,650 66 477 640
2019-04-21 13:15:33 GMT 41.911400 3.894398 29,575 66 476 576
2019-04-21 13:15:30 GMT 41.909088 3.887350 29,550 66 476 576
2019-04-21 13:15:27 GMT 41.906792 3.880282 29,525 66 476 576
2019-04-21 13:15:20 GMT 41.900459 3.860864 29,425 66 474 1152
2019-04-21 13:15:16 GMT 41.891830 3.834478 29,300 66 473 1152
2019-04-21 13:15:10 GMT 41.891830 3.834478 29,275 66 473 1152
2019-04-21 13:15:07 GMT 41.889038 3.825864 29,075 66 473 1152
2019-04-21 13:15:03 GMT 41.884956 3.813533 29,150 66 471 1152
2019-04-21 13:14:58 GMT 41.880569 3.800146 29,050 66 471 1152
2019-04-21 13:14:54 GMT 41.876038 3.786288 29,000 66 467 1088
2019-04-21 13:14:48 GMT 41.870773 3.770308 28,850 66 469 1152
2019-04-21 13:14:43 GMT 41.867779 3.761221 28,775 66 467 1088
2019-04-21 13:14:40 GMT 41.864136 3.750083 28,700 66 467 1088
2019-04-21 13:14:36 GMT 41.861168 3.741100 28,525 66 464 1024
2019-04-21 13:14:33 GMT 41.858002 3.731583 28,575 66 466 1024
2019-04-21 13:14:27 GMT 41.853653 3.718373 28,450 66 464 960
2019-04-21 13:14:24 GMT 41.851593 3.712068 28,325 66 463 896
2019-04-21 13:14:15 GMT 41.842255 3.683791 28,275 66 461 1152
2019-04-21 13:14:08 GMT 41.837082 3.668123 28,175 66 460 1472
2019-04-21 13:14:05 GMT 41.834496 3.660300 28,100 66 460 1536
2019-04-21 13:14:02 GMT 41.831749 3.651996 27,425 66 460 1408
2019-04-21 13:13:57 GMT 41.827606 3.639477 27,875 66 460 1856
2019-04-21 13:13:54 GMT 41.825184 3.632195 27,800 66 460 1792
2019-04-21 13:13:50 GMT 41.821411 3.620762 27,650 66 460 1600
2019-04-21 13:13:44 GMT 41.816757 3.606699 27,425 66 460 1408
2019-04-21 13:13:41 GMT 41.813690 3.597336 27,425 66 459 1344
2019-04-21 13:13:36 GMT 41.809204 3.583790 27,325 66 457 1344
2019-04-21 13:13:33 GMT 41.807678 3.579116 27,300 66 458 1344
2019-04-21 13:13:30 GMT 41.804607 3.569790 27,200 66 458 1408
2019-04-21 13:13:23 GMT 41.798264 3.550644 27,050 66 457 1280
2019-04-21 13:13:19 GMT 41.795563 3.542404 27,000 66 452 1152
2019-04-21 13:13:14 GMT 41.790756 3.527985 26,850 66 451 1152
2019-04-21 13:13:11 GMT 41.785194 3.511090 26,700 66 452 1152
2019-04-21 13:13:07 GMT 41.785194 3.511090 26,725 66 452 1216
2019-04-21 13:13:02 GMT 41.780273 3.496274 26,600 66 450 1088
2019-04-21 13:12:56 GMT 41.775192 3.480981 26,475 66 448 1152
2019-04-21 13:12:53 GMT 41.772491 3.472866 26,375 66 448 1152
2019-04-21 13:12:50 GMT 41.770798 3.467810 26,375 66 448 1152
2019-04-21 13:12:45 GMT 41.766251 3.454178 26,300 65 446 1216
2019-04-21 13:12:39 GMT 41.761734 3.440531 25,825 65 442 1600
2019-04-21 13:12:36 GMT 41.759220 3.433036 26,125 65 444 1408
2019-04-21 13:12:31 GMT 41.752190 3.412021 25,975 66 443 1536
2019-04-21 13:12:28 GMT 41.752190 3.412021 25,875 65 442 1600
2019-04-21 13:12:25 GMT 41.749695 3.404513 25,850 65 442 1600
2019-04-21 13:12:22 GMT 41.744385 3.388533 25,675 65 441 1664
2019-04-21 13:12:19 GMT 41.741730 3.380543 25,550 65 441 1664
2019-04-21 13:12:15 GMT 41.736221 3.364116 25,425 65 440 1536
2019-04-21 13:12:09 GMT 41.736221 3.364116 25,375 65 440 1536
2019-04-21 13:12:06 GMT 41.732918 3.354215 25,300 65 440 1536
2019-04-21 13:12:01 GMT 41.729286 3.343293 25,200 65 439 1600
2019-04-21 13:11:57 GMT 41.726261 3.334351 25,100 65 438 1408
2019-04-21 13:11:51 GMT 41.720490 3.317060 24,925 65 436 1536
2019-04-21 13:11:47 GMT 41.718346 3.310653 24,850 66 435 1472
2019-04-21 13:11:44 GMT 41.715412 3.301839 24,775 66 435 1472
2019-04-21 13:11:40 GMT 41.712296 3.292528 24,675 65 434 1536
2019-04-21 13:11:36 GMT 41.709366 3.283664 23,900 65 429 1728
2019-04-21 13:11:33 GMT 41.706570 3.275395 24,500 65 432 1600
2019-04-21 13:11:29 GMT 41.703308 3.265622 24,400 65 431 1664
2019-04-21 13:11:26 GMT 41.700703 3.257830 24,300 65 431 1856
2019-04-21 13:11:23 GMT 41.698608 3.251516 24,225 66 431 1792
2019-04-21 13:11:20 GMT 41.695488 3.242308 24,125 65 430 1856
2019-04-21 13:11:16 GMT 41.692429 3.233102 23,900 65 429 1728
2019-04-21 13:11:09 GMT 41.687210 3.217621 23,825 65 429 1728
2019-04-21 13:11:03 GMT 41.682220 3.203201 23,675 64 428 1792
2019-04-21 13:10:58 GMT 41.677845 3.191273 23,500 63 428 1792
2019-04-21 13:10:53 GMT 41.668488 3.167433 23,300 61 427 1920
2019-04-21 13:10:48 GMT 41.668488 3.167433 23,175 61 427 1920
2019-04-21 13:10:42 GMT 41.663414 3.154865 23,000 61 426 1920
2019-04-21 13:10:37 GMT 41.658737 3.143276 22,850 61 425 1856
2019-04-21 13:10:32 GMT 41.653519 3.130354 22,675 61 424 1728
2019-04-21 13:10:28 GMT 41.649445 3.120180 22,550 61 423 1600
2019-04-21 13:10:21 GMT 41.643677 3.105937 22,400 61 421 1344
2019-04-21 13:10:17 GMT 41.638882 3.094057 22,275 61 419 1280
2019-04-21 13:10:11 GMT 41.633926 3.081790 22,150 61 412 1856
2019-04-21 13:10:06 GMT 41.629337 3.070487 22,050 61 414 1408
2019-04-21 13:10:00 GMT 41.624084 3.057445 21,925 61 412 1920
2019-04-21 13:09:56 GMT 41.620308 3.048067 21,775 61 411 2048
2019-04-21 13:09:49 GMT 41.614334 3.033350 21,600 61 410 2048
2019-04-21 13:09:46 GMT 41.610905 3.024881 21,425 61 410 2048
2019-04-21 13:09:39 GMT 41.605682 3.012002 21,200 61 408 1920
2019-04-21 13:09:35 GMT 41.601547 3.001823 21,100 61 408 1792
2019-04-21 13:09:28 GMT 41.595291 2.986409 20,900 61 405 1792
2019-04-21 13:09:24 GMT 41.592281 2.978892 20,800 61 404 1728
2019-04-21 13:09:19 GMT 41.583252 2.956633 20,575 61 401 1728
2019-04-21 13:09:15 GMT 41.583252 2.956633 20,500 61 400 1856
2019-04-21 13:09:07 GMT 41.576569 2.940154 20,275 61 398 1920
2019-04-21 13:09:04 GMT 41.574097 2.934099 20,175 61 397 2048
2019-04-21 13:08:57 GMT 41.568146 2.919492 19,975 61 396 2112
2019-04-21 13:08:53 GMT 41.565002 2.911760 19,900 61 396 2176
2019-04-21 13:08:49 GMT 41.560303 2.900199 19,650 61 394 2240
2019-04-21 13:08:46 GMT 41.557510 2.893364 19,525 61 394 2176
2019-04-21 13:08:43 GMT 41.555969 2.889529 19,450 61 394 2112
2019-04-21 13:08:36 GMT 41.550247 2.875422 19,225 61 393 2048
2019-04-21 13:08:33 GMT 41.547268 2.868198 19,100 61 391 1984
2019-04-21 13:08:27 GMT 41.541275 2.853324 18,875 61 390 1856
2019-04-21 13:08:22 GMT 41.538330 2.846162 18,825 61 388 1792
2019-04-21 13:08:16 GMT 41.532509 2.831918 18,400 61 385 1792
2019-04-21 13:08:12 GMT 41.529144 2.823549 18,475 61 384 1856
2019-04-21 13:08:04 GMT 41.522686 2.807773 18,250 61 382 1920
2019-04-21 13:08:01 GMT 41.520172 2.801576 18,125 61 381 1920
2019-04-21 13:07:57 GMT 41.516960 2.793721 18,000 61 376 1920
2019-04-21 13:07:54 GMT 41.514633 2.787972 17,950 61 377 1856
2019-04-21 13:07:51 GMT 41.511330 2.779797 17,875 61 377 1920
2019-04-21 13:07:47 GMT 41.508179 2.772113 17,675 61 375 2112
2019-04-21 13:07:44 GMT 41.506348 2.767597 17,600 61 374 2176
2019-04-21 13:07:41 GMT 41.503693 2.761145 17,500 61 373 2240
2019-04-21 13:07:34 GMT 41.497421 2.745833 17,225 61 371 2176
2019-04-21 13:07:30 GMT 41.494476 2.738598 17,075 61 370 2048
2019-04-21 13:07:23 GMT 41.487633 2.721799 16,800 61 367 2240
2019-04-21 13:07:19 GMT 41.485214 2.715795 16,700 61 366 2304
2019-04-21 13:07:13 GMT 41.480347 2.703948 16,475 61 365 2624
2019-04-21 13:07:10 GMT 41.478230 2.698804 16,350 61 365 2816
2019-04-21 13:07:06 GMT 41.474854 2.690527 16,150 61 365 3200
2019-04-21 13:07:03 GMT 41.471603 2.682599 15,950 61 365 3392
2019-04-21 13:06:59 GMT 41.469852 2.678237 15,825 61 366 3520
2019-04-21 13:06:55 GMT 41.465790 2.668304 15,525 61 368 3648
2019-04-21 13:06:52 GMT 41.460892 2.656382 15,175 61 370 3904
2019-04-21 13:06:45 GMT 41.458282 2.649952 14,850 61 371 3968
2019-04-21 13:06:41 GMT 41.454487 2.640679 14,675 61 375 3328
2019-04-21 13:06:38 GMT 41.452698 2.636219 14,525 61 375 3328
2019-04-21 13:06:34 GMT 41.449036 2.627293 14,300 61 375 2880
2019-04-21 13:06:31 GMT 41.446529 2.621197 14,150 61 375 2816
2019-04-21 13:06:27 GMT 41.443359 2.613435 13,975 61 375 2624
2019-04-21 13:06:24 GMT 41.440521 2.606570 13,825 61 374 2560
2019-04-21 13:06:20 GMT 41.433773 2.590474 13,600 60 372 2688
2019-04-21 13:06:16 GMT 41.433773 2.590474 13,500 60 372 2752
2019-04-21 13:06:13 GMT 41.431770 2.585683 13,375 60 372 2752
2019-04-21 13:06:09 GMT 41.427612 2.575670 13,150 60 371 2688
2019-04-21 13:06:06 GMT 41.424911 2.569303 13,025 60 371 2624
2019-04-21 13:05:58 GMT 41.418915 2.555008 12,700 60 368 2368
2019-04-21 13:05:54 GMT 41.414749 2.545083 12,525 60 366 2368
2019-04-21 13:05:50 GMT 41.411755 2.538033 12,375 60 364 2432
2019-04-21 13:05:43 GMT 41.406166 2.524748 12,125 60 362 2432
2019-04-21 13:05:38 GMT 41.401932 2.514656 11,975 60 360 2368
2019-04-21 13:05:33 GMT 41.398178 2.505757 11,725 60 357 1792
2019-04-21 13:05:30 GMT 41.395741 2.500028 11,600 60 354 1600
2019-04-21 13:05:27 GMT 41.393505 2.494663 11,600 60 354 1600
2019-04-21 13:05:22 GMT 41.389362 2.484826 11,425 60 349 1344
2019-04-21 13:05:16 GMT 41.385132 2.474792 11,350 60 343 1152
2019-04-21 13:05:12 GMT 41.381744 2.466736 11,250 60 338 1152
2019-04-21 13:05:09 GMT 41.379318 2.460938 11,150 61 328 1088
2019-04-21 13:05:06 GMT 41.377071 2.455569 11,150 61 328 1088
2019-04-21 13:05:01 GMT 41.373688 2.447449 11,050 61 324 1088
2019-04-21 13:04:56 GMT 41.369484 2.437404 10,950 61 317 1088
2019-04-21 13:04:51 GMT 41.366413 2.429976 10,875 61 311 1088
2019-04-21 13:04:48 GMT 41.363617 2.423297 10,775 61 305 1216
2019-04-21 13:04:40 GMT 41.359131 2.412537 10,650 60 297 1344
2019-04-21 13:04:35 GMT 41.355240 2.403322 10,550 60 291 1600
2019-04-21 13:04:30 GMT 41.351990 2.395569 10,400 60 286 2368
2019-04-21 13:04:25 GMT 41.348766 2.387966 10,200 60 282 2880
2019-04-21 13:04:19 GMT 41.345184 2.379414 9,925 60 282 2816
2019-04-21 13:04:15 GMT 41.341965 2.371887 9,700 60 280 2816
2019-04-21 13:04:09 GMT 41.338528 2.363808 9,450 60 278 2880
2019-04-21 13:04:04 GMT 41.335373 2.356384 9,200 60 277 2944
2019-04-21 13:04:01 GMT 41.333221 2.351386 9,050 60 275 3008
2019-04-21 13:03:58 GMT 41.331963 2.348452 8,950 60 274 3072
2019-04-21 13:03:53 GMT 41.328781 2.341125 8,700 60 274 3136
2019-04-21 13:03:48 GMT 41.325302 2.332886 8,425 60 273 2688
2019-04-21 13:03:43 GMT 41.322468 2.326168 8,225 60 270 2240
2019-04-21 13:03:40 GMT 41.320358 2.321289 8,075 60 267 1792
2019-04-21 13:03:37 GMT 41.318558 2.316992 8,000 61 264 1472
2019-04-21 13:03:33 GMT 41.316460 2.311873 7,900 61 258 1088
2019-04-21 13:03:30 GMT 41.314087 2.305969 7,825 62 254 1024
2019-04-21 13:03:26 GMT 41.312458 2.301885 7,775 62 247 1088
2019-04-21 13:03:22 GMT 41.310699 2.297302 7,725 63 242 1152
2019-04-21 13:03:19 GMT 41.309013 2.292834 7,650 63 237 1152
2019-04-21 13:03:15 GMT 41.307220 2.287842 7,575 64 231 1216
2019-04-21 13:03:12 GMT 41.305847 2.284033 7,525 64 226 1216
2019-04-21 13:03:09 GMT 41.304218 2.279538 7,450 64 220 1280
2019-04-21 13:03:03 GMT 41.301270 2.271667 7,300 61 212 1472
2019-04-21 13:02:58 GMT 41.299347 2.267151 7,200 58 207 1600
2019-04-21 13:02:52 GMT 41.295776 2.260620 7,025 47 202 1984
2019-04-21 13:02:48 GMT 41.293556 2.257566 6,950 44 201 2240
2019-04-21 13:02:41 GMT 41.289139 2.251465 6,650 51 193 1984
2019-04-21 13:02:38 GMT 41.287411 2.248140 6,525 62 187 1920
2019-04-21 13:02:32 GMT 41.285179 2.240587 6,275 77 182 2880
2019-04-21 13:02:28 GMT 41.284714 2.237091 6,125 82 182 2880
2019-04-21 13:02:21 GMT 41.284431 2.229850 5,800 88 184 2816
2019-04-21 13:02:18 GMT 41.284340 2.225356 5,625 88 184 2752
2019-04-21 13:02:12 GMT 41.284241 2.219238 5,275 88 184 2880
2019-04-21 13:02:09 GMT 41.284199 2.216304 5,275 88 184 2880
2019-04-21 13:02:06 GMT 41.284153 2.213183 5,100 88 184 3008
2019-04-21 13:02:02 GMT 41.284061 2.207253 4,800 88 185 3008
2019-04-21 13:01:59 GMT 41.284016 2.204132 4,800 88 185 3008
2019-04-21 13:01:56 GMT 41.283970 2.201385 4,575 88 185 2944
2019-04-21 13:01:50 GMT 41.283829 2.194336 4,275 88 185 2752
2019-04-21 13:01:46 GMT 41.283733 2.189588 4,075 88 184 2560
2019-04-21 13:01:40 GMT 41.283600 2.183044 3,850 88 182 2240
2019-04-21 13:01:36 GMT 41.283508 2.178528 3,700 88 180 2304
2019-04-21 13:01:30 GMT 41.283409 2.171735 3,450 88 177 2304
2019-04-21 13:01:25 GMT 41.283318 2.166991 3,300 89 174 2432
2019-04-21 13:01:19 GMT 41.283234 2.159973 3,050 89 172 2560
2019-04-21 13:01:15 GMT 41.283176 2.155942 2,875 89 171 2560
2019-04-21 13:01:08 GMT 41.283176 2.149263 2,325 111 164 1728
2019-04-21 13:01:04 GMT 41.283268 2.145081 2,475 96 168 1792
2019-04-21 13:00:58 GMT 41.284058 2.138855 1,800 111 164 1728
2019-04-21 13:00:54 GMT 41.285065 2.134583 2,150 112 163 1664
2019-04-21 13:00:48 GMT 41.286896 2.129089 1,975 113 158 1728
2019-04-21 13:00:42 GMT 41.288437 2.124356 1,825 111 153 1728
2019-04-21 13:00:36 GMT 41.289646 2.119113 1,675 102 143 1472
2019-04-21 13:00:32 GMT 41.290329 2.114868 1,550 102 140 1344
2019-04-21 13:00:26 GMT 41.291183 2.110561 1,450 104 132 2304
2019-04-21 13:00:23 GMT 41.291603 2.108064 1,250 91 129 2880
2019-04-21 13:00:16 GMT 41.291336 2.101624 875 66 130 2752
2019-04-21 13:00:05 GMT 41.289135 2.094394 425 66 133 2752
2019-04-21 12:59:54 GMT 41.286438 2.086411 0 64 130
2019-04-21 12:59:46 GMT 41.284664 2.081253 0 64 105
2019-04-21 12:59:43 GMT 41.284187 2.079865 0 64 90
2019-04-21 12:59:34 GMT 41.282841 2.075901 0 64 45
2019-04-21 12:59:12 GMT 41.282421 2.074668 0 64 1
2019-04-21 12:58:57 GMT 41.282421 2.074661 0 64 1
2019-04-21 12:58:47 GMT 41.282421 2.074668 0 64 1
2019-04-21 12:58:41 GMT 41.282433 2.074668 0 64 1
2019-04-21 12:58:20 GMT 41.282421 2.074661 0 64 1
2019-04-21 12:58:10 GMT 41.282372 2.074528 0 78 8
2019-04-21 12:58:06 GMT 41.282352 2.074341 0 90 10
2019-04-21 12:57:58 GMT 41.282513 2.073883 0 154 14
2019-04-21 12:57:50 GMT 41.282959 2.073578 0 154 16
2019-04-21 12:57:47 GMT 41.283142 2.073471 0 163 17
2019-04-21 12:57:39 GMT 41.283760 2.073547 0 219 19
2019-04-21 12:57:35 GMT 41.283989 2.073822 0 239 21
2019-04-21 12:57:29 GMT 41.284328 2.074746 0 244 25
2019-04-21 12:57:20 GMT 41.284710 2.075882 0 247 23
2019-04-21 12:57:14 GMT 41.285019 2.076782 0 244 25
2019-04-21 12:57:05 GMT 41.285465 2.078079 0 244 27
2019-04-21 12:56:53 GMT 41.286232 2.080307 0 244 24
2019-04-21 12:56:48 GMT 41.286469 2.080988 0 247 23
2019-04-21 12:56:43 GMT 41.286469 2.080988 0 247 23
2019-04-21 12:56:36 GMT 41.286751 2.081862 0 227 21
2019-04-21 12:56:33 GMT 41.286942 2.082123 0 208 21
2019-04-21 12:56:30 GMT 41.287148 2.082260 0 199 23
2019-04-21 12:56:25 GMT 41.287766 2.082550 0 196 24
2019-04-21 12:56:21 GMT 41.288177 2.082718 0 199 24
2019-04-21 12:56:17 GMT 41.288540 2.082892 0 199 26
2019-04-21 12:56:10 GMT 41.289333 2.083252 0 199 25
2019-04-21 12:56:04 GMT 41.289940 2.083532 0 199 23
2019-04-21 12:56:00 GMT 41.290398 2.083740 0 199 23
2019-04-21 12:55:53 GMT 41.291130 2.084076 0 199 23
2019-04-21 12:55:49 GMT 41.291462 2.084219 0 199 23
2019-04-21 12:55:46 GMT 41.291813 2.084390 0 194 21
2019-04-21 12:55:39 GMT 41.292423 2.084473 0 168 20
2019-04-21 12:55:34 GMT 41.292858 2.084305 0 154 19
2019-04-21 12:55:29 GMT 41.293243 2.084063 0 154 18
2019-04-21 12:55:22 GMT 41.293800 2.083719 0 154 18
2019-04-21 12:55:18 GMT 41.294060 2.083572 0 154 18
2019-04-21 12:55:12 GMT 41.294449 2.083344 0 154 18
2019-04-21 12:55:09 GMT 41.294769 2.083142 0 154 17
2019-04-21 12:55:03 GMT 41.295170 2.082901 0 154 16
2019-04-21 12:54:58 GMT 41.295418 2.082705 0 132 15
2019-04-21 12:54:52 GMT 41.295628 2.082214 0 87 15
2019-04-21 12:54:48 GMT 41.295570 2.081847 0 64 16
2019-04-21 12:54:41 GMT 41.295364 2.081268 0 64 19
2019-04-21 12:54:36 GMT 41.295193 2.080765 0 64 23
2019-04-21 12:54:31 GMT 41.294930 2.079990 0 67 28
2019-04-21 12:54:21 GMT 41.294384 2.078398 0 64 28
2019-04-21 12:54:14 GMT 41.293991 2.077225 0 64 27
2019-04-21 12:54:11 GMT 41.293846 2.076837 0 64 27
2019-04-21 12:54:04 GMT 41.293556 2.075974 0 70 27
2019-04-21 12:54:00 GMT 41.293385 2.075261 0 67 27
2019-04-21 12:53:54 GMT 41.293110 2.074417 0 64 26
2019-04-21 12:53:46 GMT 41.292686 2.073201 0 64 26
2019-04-21 12:53:40 GMT 41.292400 2.072342 0 64 25
2019-04-21 12:53:34 GMT 41.292160 2.071656 0 64 25
2019-04-21 12:53:28 GMT 41.291874 2.070831 0 64 24
2019-04-21 12:53:19 GMT 41.291451 2.069565 0 64 24
2019-04-21 12:53:11 GMT 41.291103 2.068566 0 64 23
2019-04-21 12:53:08 GMT 41.290985 2.068223 0 64 23
2019-04-21 12:53:02 GMT 41.290752 2.067521 0 64 22
2019-04-21 12:52:58 GMT 41.290543 2.066959 0 64 22
2019-04-21 12:52:48 GMT 41.290112 2.065695 0 75 21
2019-04-21 12:52:38 GMT 41.290173 2.064571 0 109 23
2019-04-21 12:52:33 GMT 41.290329 2.064011 0 109 24
2019-04-21 12:52:26 GMT 41.290638 2.063110 0 132 24
2019-04-21 12:52:22 GMT 41.290985 2.062714 0 154 24
2019-04-21 12:52:14 GMT 41.291725 2.062271 0 154 22
2019-04-21 12:52:11 GMT 41.292034 2.062074 0 154 22
2019-04-21 12:52:04 GMT 41.292664 2.061707 0 196 13
2019-04-21 12:51:59 GMT 41.293091 2.061435 0 160 17
2019-04-21 12:51:55 GMT 41.293266 2.061357 0 165 17
2019-04-21 12:51:45 GMT 41.294014 2.061310 0 196 13
2019-04-21 12:51:42 GMT 41.294243 2.061310 0 196 13
2019-04-21 12:51:35 GMT 41.294552 2.061600 0 244 13
2019-04-21 12:51:31 GMT 41.294632 2.061844 0 244 17
2019-04-21 12:51:22 GMT 41.295055 2.063080 0 244 26
2019-04-21 12:51:19 GMT 41.295135 2.063309 0 244 26
2019-04-21 12:51:12 GMT 41.295502 2.064369 0 244 24
2019-04-21 12:51:02 GMT 41.295902 2.065552 0 244 22
2019-04-21 12:50:52 GMT 41.296432 2.067053 0 244 29

Making use of Plane Finder data

You are free to use the raw flight data, aircraft information and images provided in this report for your own purposes provided the data is correctly attributed to Plane Finder. We ask that you please credit Plane Finder and link to planefinder.net in close proximity to the content.

Optionally one of the following logos (no smaller then 150x24px) can be used and must link to planefinder.net

Embedding the Plane Finder map

You are welcome to embed the Plane Finder playback map on your website to offer visitors a more interactive experience. We suggest using the following HTML code:

<iframe src="//planefinder.net/data/report/EW7521-D-AKNF-7700-squawk-2019-04-21/map" width="800" height="600" seamless="seamless"></iframe>

Where our data comes from

Plane Finder has a global network of data feeds and antenna radars that receive data broadcast directly from aircraft. The primary technologies used are ADS-B and MLAT. We also show feeds from the FAA and a FLARM glider feed.

Click here to find out more about the Plane Finder network.

How we collect our data